Airfield :
LOGIN :

Register | Disclaimer

   EN    FR    IT 

 










Legend :    VFR   Marginal VFR   IFR   Intensive IFR   Very Intensive IFR
Visi :
Ceiling :
>= 8 km
>= 3000ft
5 to 8 km
1000 to 3000 ft
1500m to 5 km
500 to 1000 ft
800 to 1500m
200 to 500 ft
< 800m
< 200 ft
Symbols :   Thunderstorms  Fog  Heavy snow  Heavy precipitations  Wind > 20 kt
SIGMETs :     Misc.  Thunderstorms  Icing  Turbulence  Mountain Waves  Volcanic Ashes







- Airport Elevation : 197 ft
- IATA code : XOG
- Download approach charts


LFMO - Orange

CURRENT METAR :
  • 181600Z AUTO 13006KT CAVOK 12/05 Q1018 NOSIG

EXPIRED METARs :
  • 181530Z AUTO 11005KT CAVOK 12/04 Q1018 NOSIG
  • 181500Z AUTO 11003KT CAVOK 12/04 Q1018 NOSIG
  • 181430Z AUTO 09005KT CAVOK 12/04 Q1018 BECMG 15010KT
  • 181400Z AUTO 14003KT 110V210 CAVOK 12/04 Q1019 NOSIG
  • 181330Z AUTO 14003KT 110V190 CAVOK 11/03 Q1019 NOSIG

TAF TAF LFMO
Valid from the 18 at 15:00 until the 19 at 15:00 UTC


181400Z 1815/1915 15010KT CAVOK
BECMG 1818/1820 09005KT
BECMG 1822/1824 VRB02KT
TEMPO 1900/1906 3000 BR
PROB40
TEMPO 1901/1906 0800 FG VV///
BECMG 1908/1910 35015KT
BECMG 1910/1912 35015G25KT
TEMPO 1912/1915 35020G30KT
No reported NOTAMs for that airfield.
4 SIGMETs reported for the Marseille FIR (LFMM) :
 
Severe mountain waves
LFMM SIGMET 15 VALID 181500/181800 LFPW
LFMM MARSEILLE FIR/UIR SEV MTW FCST E OF LINE N4115 E00900 - N4330 E00830 SFC/FL350 STNR NC=
Severe mountain waves
LFMM SIGMET 14 VALID 181500/181800 LFPW
LFMM MARSEILLE FIR/UIR SEV MTW FCST WI N4530 E00700 - N4400 E00700 - N4400 E00730 - N4330 E00630 - N4500 E00615 - N4530 E00700 SFC/FL300 STNR NC=
Severe turbulence
LFMM SIGMET 13 VALID 181300/181700 LFPW
LFMM MARSEILLE FIR/UIR SEV TURB FCST WI N4500 E00245 - N4630 E00300 - N4630 E00415 - N4530 E00400 - N4500 E00245 SFC/FL080 STNR WKN=
Severe turbulence
LFMM SIGMET 12 VALID 181300/181700 LFPW
LFMM MARSEILLE FIR/UIR SEV TURB FCST WI N4400 E00700 - N4315 E00945 - N4115 E00945 - N4115 E00845 - N4300 E00530 - N4400 E00700 SFC/FL060 STNR NC=



MET'MAP, your aeronautical weather chart ! - Copyright ORBIFLY December 2007 - Disclaimer

ORBIFLY MET'MAP TEAM :

Programming & Development : Alexandra Zaïnal
Concept & Development : Baudouin d'Aumeries
Co-Development & Prog : Marc-Olivier Méhu
Technical & hardware support : Manuel Goepfert

Contact : metmap@orbifly.com




SOURCES & CREDITS :

   NOAA